Terminal Aerodrome Forecast
Issued by NWS

Home | Current Version | Previous Version | Text Only | Print | Product List | Glossary On
Versions: 1 2 3 4 5 6 7 8 9 10 11 12 13 14
864
FTUS46 KMFR 052340
TAFOTH
TAF
KOTH 052340Z 0600/0624 36018G28KT P6SM OVC040
     FM060800 36012KT P6SM BKN020 OVC035
     FM061700 36020G32KT P6SM SCT025 SCT040=

USA.gov is the U.S. government's official web portal to all federal, state and local government web resources and services.